createdAt,value
2022-09-01T00:00:49.333Z,19.07
2022-09-01T00:03:18.578Z,19.03
2022-09-01T00:05:51.200Z,18.57
2022-09-01T00:08:19.829Z,18.27
2022-09-01T00:10:49.142Z,18.57
2022-09-01T00:13:18.614Z,18.86
2022-09-01T00:15:47.342Z,18.73
2022-09-01T00:18:16.189Z,18.48
2022-09-01T00:20:44.874Z,18.54
2022-09-01T00:23:14.733Z,18.69
2022-09-01T00:25:43.490Z,18.58
2022-09-01T00:28:12.120Z,18.20
2022-09-01T00:30:41.078Z,18.30
2022-09-01T00:33:10.135Z,18.59
2022-09-01T00:35:38.957Z,18.53
2022-09-01T00:38:07.849Z,18.11
2022-09-01T00:40:38.650Z,18.21
2022-09-01T00:43:16.184Z,18.16
2022-09-01T00:45:45.213Z,18.27
2022-09-01T00:48:14.474Z,17.86
2022-09-01T00:50:43.974Z,18.05
2022-09-01T00:53:18.256Z,18.10
2022-09-01T00:55:48.316Z,18.20
2022-09-01T00:58:19.612Z,18.61
2022-09-01T01:00:50.821Z,18.52
2022-09-01T01:03:19.493Z,18.34
2022-09-01T01:05:54.094Z,18.36
2022-09-01T01:08:29.215Z,18.52
2022-09-01T01:10:59.247Z,18.22
2022-09-01T01:13:29.155Z,18.11
2022-09-01T01:15:57.709Z,18.15
2022-09-01T01:18:27.004Z,18.04
2022-09-01T01:21:21.264Z,18.03
2022-09-01T01:23:56.722Z,18.00
2022-09-01T01:26:26.947Z,18.07
2022-09-01T01:28:56.034Z,18.04
2022-09-01T01:31:25.821Z,17.98
2022-09-01T01:33:57.318Z,17.86
2022-09-01T01:36:32.293Z,17.72
2022-09-01T01:39:07.367Z,17.49
2022-09-01T01:41:42.599Z,17.67
2022-09-01T01:44:13.326Z,17.52
2022-09-01T01:46:44.317Z,17.61
2022-09-01T01:49:20.866Z,17.58
2022-09-01T01:51:56.329Z,17.51
2022-09-01T01:54:32.471Z,17.53
2022-09-01T01:57:04.621Z,17.37
2022-09-01T01:59:33.556Z,17.30
2022-09-01T02:02:04.103Z,17.14
2022-09-01T02:04:34.366Z,16.78
2022-09-01T02:07:12.130Z,17.20
2022-09-01T02:09:44.409Z,17.15
2022-09-01T02:12:18.350Z,16.98
2022-09-01T02:14:47.088Z,17.07
2022-09-01T02:17:15.589Z,17.00
2022-09-01T02:19:44.111Z,16.48
2022-09-01T02:22:12.635Z,17.03
2022-09-01T02:24:46.609Z,17.25
2022-09-01T02:27:26.035Z,16.98
2022-09-01T02:29:55.938Z,17.29
2022-09-01T02:32:24.855Z,17.02
2022-09-01T02:35:01.538Z,17.42
2022-09-01T02:37:30.600Z,17.54
2022-09-01T02:39:59.706Z,17.42
2022-09-01T02:42:30.441Z,17.51
2022-09-01T02:44:59.944Z,17.36
2022-09-01T02:47:31.422Z,16.84
2022-09-01T02:50:02.030Z,16.94
2022-09-01T02:52:35.709Z,17.10
2022-09-01T02:55:05.149Z,17.02
2022-09-01T02:57:36.091Z,17.07
2022-09-01T03:00:20.971Z,17.04
2022-09-01T03:02:53.011Z,17.22
2022-09-01T03:05:25.595Z,17.10
2022-09-01T03:07:56.806Z,16.60
2022-09-01T03:10:32.304Z,16.87
2022-09-01T03:13:04.764Z,16.79
2022-09-01T03:15:34.634Z,16.78
2022-09-01T03:18:04.656Z,16.89
2022-09-01T03:20:36.726Z,16.73
2022-09-01T03:23:08.659Z,16.95
2022-09-01T03:25:37.908Z,16.83
2022-09-01T03:28:09.369Z,16.49
2022-09-01T03:30:40.678Z,16.77
2022-09-01T03:33:09.495Z,16.46
2022-09-01T03:35:38.277Z,16.62
2022-09-01T03:38:07.032Z,16.64
2022-09-01T03:40:38.050Z,16.58
2022-09-01T03:43:14.079Z,16.42
2022-09-01T03:45:45.135Z,16.60
2022-09-01T03:48:17.144Z,16.49
2022-09-01T03:50:47.587Z,16.33
2022-09-01T03:53:19.110Z,16.28
2022-09-01T03:55:49.962Z,16.31
2022-09-01T03:58:21.297Z,16.46
2022-09-01T04:04:01.671Z,16.41
2022-09-01T04:06:33.494Z,16.55
2022-09-01T04:09:03.811Z,16.53
2022-09-01T04:11:34.215Z,16.66
2022-09-01T04:14:04.673Z,16.83
2022-09-01T04:16:54.087Z,16.99
2022-09-01T04:19:26.790Z,17.27
2022-09-01T04:22:00.311Z,17.09
2022-09-01T04:24:35.063Z,17.30
2022-09-01T04:27:07.483Z,17.16
2022-09-01T04:29:37.559Z,17.09
2022-09-01T04:32:11.207Z,17.19
2022-09-01T04:34:42.220Z,17.20
2022-09-01T04:37:17.383Z,17.29
2022-09-01T04:39:55.585Z,17.59
2022-09-01T04:42:27.443Z,17.47
2022-09-01T04:45:01.876Z,17.62
2022-09-01T04:47:35.907Z,17.37
2022-09-01T04:50:14.538Z,16.76
2022-09-01T04:52:47.992Z,17.06
2022-09-01T04:55:32.838Z,17.01
2022-09-01T04:58:07.194Z,17.19
2022-09-01T05:00:41.585Z,17.35
2022-09-01T05:03:10.430Z,16.86
2022-09-01T05:06:01.450Z,16.80
2022-09-01T05:08:34.797Z,16.74
2022-09-01T05:11:07.853Z,16.74
2022-09-01T05:13:43.517Z,16.80
2022-09-01T05:16:19.436Z,16.84
2022-09-01T05:18:51.574Z,16.90
2022-09-01T05:21:24.769Z,17.11
2022-09-01T05:23:54.539Z,17.22
2022-09-01T05:26:27.474Z,17.16
2022-09-01T05:28:59.453Z,16.99
2022-09-01T05:31:37.840Z,16.94
2022-09-01T05:34:10.605Z,16.92
2022-09-01T05:36:44.767Z,16.95
2022-09-01T05:39:14.956Z,17.16
2022-09-01T05:41:44.227Z,17.08
2022-09-01T05:44:14.276Z,17.32
2022-09-01T05:46:45.314Z,17.48
2022-09-01T05:49:16.345Z,17.46
2022-09-01T05:51:50.496Z,17.30
2022-09-01T05:54:25.611Z,17.42
2022-09-01T05:56:55.810Z,17.55
2022-09-01T05:59:31.421Z,17.56
2022-09-01T06:02:04.305Z,17.47
2022-09-01T06:04:33.168Z,17.68
2022-09-01T06:07:09.620Z,17.67
2022-09-01T06:09:45.535Z,17.74
2022-09-01T06:12:19.015Z,17.70
2022-09-01T06:14:49.631Z,17.25
2022-09-01T06:17:25.295Z,17.30
2022-09-01T06:19:56.254Z,17.41
2022-09-01T06:22:28.246Z,17.70
2022-09-01T06:25:02.210Z,17.75
2022-09-01T06:27:34.805Z,17.84
2022-09-01T06:30:04.972Z,17.92
2022-09-01T06:32:39.220Z,18.02
2022-09-01T06:35:09.395Z,17.98
2022-09-01T06:37:39.091Z,17.94
2022-09-01T06:40:17.351Z,17.94
2022-09-01T06:42:47.393Z,17.91
2022-09-01T06:45:17.739Z,18.01
2022-09-01T06:47:51.211Z,18.18
2022-09-01T06:53:45.499Z,17.95
2022-09-01T06:56:13.593Z,18.30
2022-09-01T06:58:45.160Z,18.38
2022-09-01T07:01:15.593Z,18.29
2022-09-01T07:03:47.741Z,18.42
2022-09-01T07:12:25.926Z,18.50
2022-09-01T07:17:49.154Z,18.57
2022-09-01T07:20:24.668Z,18.62
2022-09-01T07:23:04.427Z,18.79
2022-09-01T07:26:01.347Z,18.81
2022-09-01T07:28:37.027Z,18.83
2022-09-01T07:39:48.890Z,19.04
2022-09-01T07:45:58.940Z,18.88
2022-09-01T07:49:01.814Z,18.85
2022-09-01T07:51:37.671Z,19.01
2022-09-01T07:54:10.928Z,19.03
2022-09-01T07:56:41.506Z,19.03
2022-09-01T07:59:15.026Z,19.35
2022-09-01T08:02:10.514Z,19.69
2022-09-01T08:04:40.157Z,19.67
2022-09-01T08:07:15.439Z,19.96
2022-09-01T08:09:46.162Z,19.57
2022-09-01T08:12:17.205Z,19.37
2022-09-01T08:17:52.106Z,19.78
2022-09-01T08:20:23.075Z,19.69
2022-09-01T08:22:59.706Z,20.34
2022-09-01T08:25:38.538Z,20.18
2022-09-01T08:28:08.035Z,20.01
2022-09-01T08:30:37.770Z,20.40
2022-09-01T08:33:13.444Z,20.40
2022-09-01T08:35:47.910Z,20.54
2022-09-01T08:38:17.573Z,20.48
2022-09-01T08:40:56.100Z,20.79
2022-09-01T08:43:38.181Z,21.59
2022-09-01T08:46:14.099Z,22.37
2022-09-01T08:51:51.435Z,23.93
2022-09-01T08:54:30.019Z,24.73
2022-09-01T08:57:07.539Z,26.43
2022-09-01T08:59:55.053Z,26.25
2022-09-01T09:02:47.889Z,26.81
2022-09-01T09:05:32.181Z,28.03
2022-09-01T09:08:14.259Z,29.99
2022-09-01T09:10:52.441Z,33.14
2022-09-01T09:13:31.849Z,35.01
2022-09-01T09:16:10.863Z,36.80
2022-09-01T09:19:00.844Z,37.36
2022-09-01T09:21:34.629Z,37.28
2022-09-01T09:24:12.216Z,36.61
2022-09-01T09:26:44.745Z,37.42
2022-09-01T09:29:15.017Z,38.78
2022-09-01T09:31:49.993Z,39.99
2022-09-01T09:34:33.441Z,41.22
2022-09-01T09:37:25.524Z,42.16
2022-09-01T09:40:11.593Z,41.56
2022-09-01T09:42:41.504Z,41.49
2022-09-01T09:45:28.139Z,43.65
2022-09-01T09:47:58.622Z,43.01
2022-09-01T09:50:30.088Z,43.32
2022-09-01T09:53:16.345Z,43.43
2022-09-01T09:55:56.410Z,42.98
2022-09-01T09:58:27.838Z,44.32
2022-09-01T10:01:08.412Z,43.55
2022-09-01T10:03:42.614Z,44.84
2022-09-01T10:06:17.922Z,43.31
2022-09-01T10:08:48.233Z,44.34
2022-09-01T10:11:35.865Z,44.05
2022-09-01T10:14:13.747Z,43.48
2022-09-01T10:16:59.527Z,44.62
2022-09-01T10:19:35.099Z,45.09
2022-09-01T10:22:04.748Z,44.99
2022-09-01T10:24:38.874Z,44.09
2022-09-01T10:27:14.819Z,43.56
2022-09-01T10:29:49.610Z,42.70
2022-09-01T10:32:49.059Z,43.97
2022-09-01T10:35:19.165Z,44.12
2022-09-01T10:37:49.260Z,44.34
2022-09-01T10:40:30.403Z,42.65
2022-09-01T10:43:05.587Z,43.45
2022-09-01T10:45:38.167Z,45.13
2022-09-01T10:48:32.142Z,45.06
2022-09-01T10:51:50.579Z,41.93
2022-09-01T10:54:57.762Z,41.77
2022-09-01T10:57:51.278Z,43.88
2022-09-01T11:04:01.711Z,41.86
2022-09-01T11:07:12.266Z,42.17
2022-09-01T11:09:43.321Z,39.29
2022-09-01T11:12:48.734Z,35.90
2022-09-01T11:15:38.541Z,39.35
2022-09-01T11:18:14.550Z,39.23
2022-09-01T11:20:48.453Z,41.66
2022-09-01T11:23:27.492Z,42.15
2022-09-01T11:28:46.715Z,43.02
2022-09-01T11:31:24.324Z,44.45
2022-09-01T11:34:00.878Z,44.36
2022-09-01T11:36:34.932Z,42.04
2022-09-01T11:39:16.869Z,38.62
2022-09-01T11:41:57.510Z,36.50
2022-09-01T11:44:30.917Z,36.33
2022-09-01T11:47:04.209Z,38.77
2022-09-01T11:49:36.290Z,39.52
2022-09-01T11:52:07.166Z,41.95
2022-09-01T11:54:41.866Z,41.82
2022-09-01T11:57:22.588Z,40.30
2022-09-01T11:59:52.464Z,40.68
2022-09-01T12:02:23.422Z,40.31
2022-09-01T12:04:53.693Z,36.15
2022-09-01T12:07:45.598Z,33.08
2022-09-01T12:10:21.413Z,34.39
2022-09-01T12:12:50.169Z,34.18
2022-09-01T12:15:26.938Z,33.74
2022-09-01T12:18:11.763Z,33.42
2022-09-01T12:20:41.270Z,32.84
2022-09-01T12:23:24.324Z,32.14
2022-09-01T12:25:55.932Z,31.67
2022-09-01T12:28:26.149Z,31.33
2022-09-01T12:31:00.899Z,30.61
2022-09-01T12:33:30.059Z,30.62
2022-09-01T12:36:31.341Z,30.62
2022-09-01T12:39:22.622Z,30.47
2022-09-01T12:42:05.108Z,30.58
2022-09-01T12:44:35.811Z,30.36
2022-09-01T12:47:06.925Z,29.90
2022-09-01T12:49:50.367Z,29.64
2022-09-01T12:52:26.172Z,29.34
2022-09-01T12:55:47.445Z,29.52
2022-09-01T12:58:06.382Z,29.72
2022-09-01T13:00:36.889Z,30.19
2022-09-01T13:03:14.401Z,30.84
2022-09-01T13:05:45.225Z,31.21
2022-09-01T13:08:15.482Z,31.43
2022-09-01T13:10:47.847Z,31.35
2022-09-01T13:13:17.521Z,31.07
2022-09-01T13:15:50.382Z,31.28
2022-09-01T13:18:20.390Z,31.37
2022-09-01T13:20:49.550Z,31.21
2022-09-01T13:23:19.039Z,30.28
2022-09-01T13:25:52.203Z,30.31
2022-09-01T13:36:48.103Z,29.45
2022-09-01T13:39:19.138Z,28.97
2022-09-01T13:41:50.914Z,28.36
2022-09-01T13:44:19.974Z,29.04
2022-09-01T13:50:06.346Z,30.13
2022-09-01T13:52:26.563Z,29.85
2022-09-01T13:54:55.314Z,29.93
2022-09-01T13:57:25.171Z,29.74
2022-09-01T13:59:53.682Z,29.69
2022-09-01T14:02:22.450Z,29.32
2022-09-01T14:04:50.988Z,29.10
2022-09-01T14:07:20.455Z,28.99
2022-09-01T14:09:49.282Z,29.22
2022-09-01T14:12:17.751Z,29.32
2022-09-01T14:17:36.813Z,29.05
2022-09-01T14:20:08.649Z,29.33
2022-09-01T14:22:38.681Z,29.36
2022-09-01T14:25:08.671Z,29.50
2022-09-01T14:27:37.276Z,30.04
2022-09-01T14:30:09.816Z,30.15
2022-09-01T14:32:38.518Z,29.93
2022-09-01T14:35:08.363Z,29.88
2022-09-01T14:37:38.515Z,29.47
2022-09-01T14:40:09.635Z,29.87
2022-09-01T14:42:46.694Z,29.83
2022-09-01T14:45:18.738Z,29.68
2022-09-01T14:47:48.450Z,29.92
2022-09-01T14:50:22.951Z,29.97
2022-09-01T14:52:54.645Z,29.77
2022-09-01T14:55:24.136Z,29.35
2022-09-01T14:57:53.097Z,29.00
2022-09-01T15:00:25.491Z,29.24
2022-09-01T15:02:57.882Z,29.05
2022-09-01T15:05:27.193Z,29.00
2022-09-01T15:07:55.898Z,28.83
2022-09-01T15:10:26.817Z,28.40
2022-09-01T15:12:57.591Z,28.91
2022-09-01T15:15:29.306Z,29.19
2022-09-01T15:17:58.755Z,28.79
2022-09-01T15:20:45.094Z,28.64
2022-09-01T15:23:14.116Z,28.88
2022-09-01T15:25:42.868Z,28.49
2022-09-01T15:28:11.894Z,28.51
2022-09-01T15:30:44.392Z,28.24
2022-09-01T15:33:16.628Z,27.84
2022-09-01T15:35:46.353Z,27.55
2022-09-01T15:38:17.574Z,27.50
2022-09-01T15:40:55.342Z,27.37
2022-09-01T15:43:27.553Z,27.42
2022-09-01T15:45:59.432Z,27.68
2022-09-01T15:48:29.419Z,27.72
2022-09-01T15:51:27.852Z,27.82
2022-09-01T15:54:00.065Z,28.24
2022-09-01T15:56:31.402Z,28.25
2022-09-01T15:59:01.638Z,28.21
2022-09-01T16:01:34.977Z,28.19
2022-09-01T16:04:05.733Z,28.34
2022-09-01T16:06:35.028Z,28.33
2022-09-01T16:09:03.543Z,28.17
2022-09-01T16:11:32.030Z,28.21
2022-09-01T16:14:02.026Z,28.26
2022-09-01T16:16:41.253Z,27.96
2022-09-01T16:19:22.737Z,28.13
2022-09-01T16:21:55.622Z,27.98
2022-09-01T16:24:25.441Z,28.03
2022-09-01T16:26:54.100Z,27.69
2022-09-01T16:29:44.631Z,27.22
2022-09-01T16:32:15.316Z,27.16
2022-09-01T16:34:47.250Z,26.78
2022-09-01T16:37:28.739Z,26.57
2022-09-01T16:40:06.790Z,26.43
2022-09-01T16:42:47.174Z,26.02
2022-09-01T16:45:27.212Z,25.89
2022-09-01T16:48:05.266Z,25.88
2022-09-01T16:50:41.479Z,25.99
2022-09-01T16:53:23.369Z,25.87
2022-09-01T16:56:00.509Z,26.04
2022-09-01T16:58:42.668Z,25.75
2022-09-01T17:01:37.355Z,25.43
2022-09-01T17:04:19.509Z,25.90
2022-09-01T17:07:13.491Z,25.90
2022-09-01T17:09:51.497Z,25.64
2022-09-01T17:12:27.860Z,25.41
2022-09-01T17:14:59.762Z,25.34
2022-09-01T17:17:39.108Z,25.35
2022-09-01T17:20:09.900Z,25.17
2022-09-01T17:22:40.019Z,24.85
2022-09-01T17:25:13.697Z,24.92
2022-09-01T17:27:54.427Z,25.03
2022-09-01T17:30:23.442Z,25.11
2022-09-01T17:33:13.113Z,25.18
2022-09-01T17:35:58.642Z,24.94
2022-09-01T17:38:36.589Z,24.94
2022-09-01T17:41:19.715Z,24.82
2022-09-01T17:43:59.787Z,24.74
2022-09-01T17:46:37.114Z,24.76
2022-09-01T17:49:20.634Z,24.64
2022-09-01T17:51:57.019Z,24.74
2022-09-01T17:54:37.398Z,24.68
2022-09-01T17:57:14.087Z,24.62
2022-09-01T17:59:47.989Z,24.59
2022-09-01T18:02:37.959Z,24.21
2022-09-01T18:05:12.796Z,24.29
2022-09-01T18:08:07.407Z,24.33
2022-09-01T18:10:41.253Z,24.11
2022-09-01T18:13:30.584Z,24.16
2022-09-01T18:16:11.554Z,24.09
2022-09-01T18:18:42.206Z,24.17
2022-09-01T18:21:15.795Z,23.80
2022-09-01T18:23:48.331Z,23.98
2022-09-01T18:26:24.262Z,23.95
2022-09-01T18:28:54.829Z,23.77
2022-09-01T18:31:39.266Z,23.92
2022-09-01T18:34:17.234Z,23.92
2022-09-01T18:36:55.403Z,23.98
2022-09-01T18:39:34.198Z,23.97
2022-09-01T18:42:15.594Z,23.89
2022-09-01T18:44:52.179Z,23.81
2022-09-01T18:47:30.217Z,23.75
2022-09-01T18:50:07.536Z,23.66
2022-09-01T18:53:01.274Z,23.63
2022-09-01T18:55:39.502Z,23.66
2022-09-01T18:58:17.026Z,23.48
2022-09-01T19:00:54.701Z,23.49
2022-09-01T19:03:30.706Z,23.40
2022-09-01T19:06:12.101Z,23.31
2022-09-01T19:08:52.324Z,23.14
2022-09-01T19:11:31.715Z,23.15
2022-09-01T19:14:09.327Z,23.06
2022-09-01T19:16:52.389Z,22.95
2022-09-01T19:19:33.876Z,22.90
2022-09-01T19:22:02.508Z,22.83
2022-09-01T19:24:37.121Z,22.66
2022-09-01T19:27:12.462Z,22.72
2022-09-01T19:29:48.049Z,22.69
2022-09-01T19:32:21.729Z,22.58
2022-09-01T19:34:54.768Z,22.63
2022-09-01T19:37:23.954Z,22.66
2022-09-01T19:39:54.685Z,22.65
2022-09-01T19:42:30.425Z,22.46
2022-09-01T19:45:08.806Z,22.52
2022-09-01T19:47:46.442Z,22.60
2022-09-01T19:50:20.110Z,22.57
2022-09-01T19:52:56.886Z,22.56
2022-09-01T19:55:31.806Z,22.48
2022-09-01T19:58:05.912Z,22.46
2022-09-01T20:00:52.912Z,22.33
2022-09-01T20:03:27.426Z,22.32
2022-09-01T20:06:01.278Z,22.31
2022-09-01T20:08:36.080Z,22.27
2022-09-01T20:11:12.146Z,22.24
2022-09-01T20:14:13.152Z,22.10
2022-09-01T20:16:48.751Z,22.00
2022-09-01T20:19:26.981Z,22.08
2022-09-01T20:21:56.195Z,22.10
2022-09-01T20:24:36.262Z,22.06
2022-09-01T20:27:12.255Z,22.02
2022-09-01T20:29:48.349Z,21.93
2022-09-01T20:32:26.641Z,21.94
2022-09-01T20:35:00.035Z,21.73
2022-09-01T20:37:37.996Z,21.78
2022-09-01T20:40:10.136Z,21.72
2022-09-01T20:42:48.532Z,21.69
2022-09-01T20:45:20.015Z,21.78
2022-09-01T20:47:52.665Z,21.73
2022-09-01T20:50:24.355Z,21.68
2022-09-01T20:53:11.449Z,21.58
2022-09-01T20:55:44.373Z,21.61
2022-09-01T20:58:19.314Z,21.50
2022-09-01T21:00:55.281Z,21.49
2022-09-01T21:03:33.876Z,21.40
2022-09-01T21:06:09.400Z,21.41
2022-09-01T21:08:45.417Z,21.41
2022-09-01T21:11:33.178Z,21.48
2022-09-01T21:14:14.159Z,21.41
2022-09-01T21:16:57.713Z,21.44
2022-09-01T21:19:33.404Z,21.44
2022-09-01T21:22:07.339Z,21.49
2022-09-01T21:24:36.188Z,21.45
2022-09-01T21:27:13.002Z,21.55
2022-09-01T21:29:50.116Z,21.50
2022-09-01T21:32:20.046Z,21.56
2022-09-01T21:34:50.641Z,21.50
2022-09-01T21:37:19.488Z,21.58
2022-09-01T21:39:51.830Z,21.62
2022-09-01T21:42:21.269Z,21.35
2022-09-01T21:44:50.442Z,21.22
2022-09-01T21:47:24.885Z,21.37
2022-09-01T21:49:53.372Z,21.72
2022-09-01T21:52:22.365Z,21.56
2022-09-01T21:54:51.426Z,21.69
2022-09-01T21:57:21.035Z,21.79
2022-09-01T21:59:50.012Z,21.79
2022-09-01T22:02:20.736Z,21.76
2022-09-01T22:04:50.954Z,21.73
2022-09-01T22:07:21.027Z,21.68
2022-09-01T22:09:50.049Z,21.68
2022-09-01T22:12:18.810Z,21.71
2022-09-01T22:14:47.734Z,21.70
2022-09-01T22:17:16.339Z,21.73
2022-09-01T22:19:45.006Z,21.62
2022-09-01T22:22:16.554Z,21.73
2022-09-01T22:24:44.990Z,21.73
2022-09-01T22:27:13.452Z,21.74
2022-09-01T22:29:42.150Z,21.71
2022-09-01T22:32:11.182Z,21.71
2022-09-01T22:34:39.959Z,21.68
2022-09-01T22:37:12.210Z,21.68
2022-09-01T22:39:42.129Z,21.57
2022-09-01T22:42:10.602Z,21.57
2022-09-01T22:44:39.109Z,21.50
2022-09-01T22:47:07.930Z,21.48
2022-09-01T22:49:37.088Z,21.46
2022-09-01T22:52:05.654Z,21.46
2022-09-01T22:54:34.354Z,21.44
2022-09-01T22:57:04.297Z,21.48
2022-09-01T22:59:32.821Z,21.43
2022-09-01T23:02:02.005Z,21.42
2022-09-01T23:04:32.349Z,21.48
2022-09-01T23:07:00.828Z,21.59
2022-09-01T23:09:29.287Z,21.53
2022-09-01T23:11:57.858Z,21.48
2022-09-01T23:14:28.465Z,21.36
2022-09-01T23:16:57.464Z,21.43
2022-09-01T23:19:26.676Z,21.48
2022-09-01T23:21:55.572Z,21.49
2022-09-01T23:24:24.196Z,21.38
2022-09-01T23:26:52.898Z,21.40
2022-09-01T23:29:21.793Z,21.48
2022-09-01T23:31:51.768Z,21.36
2022-09-01T23:34:20.291Z,21.49
2022-09-01T23:36:48.884Z,21.49
2022-09-01T23:39:17.406Z,21.44
2022-09-01T23:41:46.171Z,21.49
2022-09-01T23:44:14.771Z,21.44
2022-09-01T23:46:45.590Z,21.41
2022-09-01T23:49:17.269Z,21.38
2022-09-01T23:51:46.916Z,21.36
2022-09-01T23:54:16.502Z,21.17
2022-09-01T23:56:45.199Z,21.23
2022-09-01T23:59:13.966Z,21.17
